Skip to main content

NOAA/GLERL Met Station at Chicago, IL

Previous 5 days (top of hour only)
See also Previous 3 Hours (2 minute increments)
Jump down to Data
Switch to [English][Metric]
Zoom: Click and drag, Pan: shift-click and drag, Unzoom: double-click, Unzoom All




Note: Speed = mean wind during 2-minute period at top of hour,
Gust = max wind during 2-minute period at top of hour,
Peak = max wind during entire hour.
• See also 5-day windrose plot


NOAA/GLERL Met Station at Chicago, IL

Previous 5 days (top of hour only)
See also Previous 3 Hours (2 minute increments)
Jump up to Graphs
Switch to [English][Metric]
                  Wind  Wind  Wind   Air   Dew   Rel
                   Spd   Gst   Dir  Temp    Pt   Hum
YYYY-MM-DD   CDT   kts   kts   deg     F     F     %
2019-10-15 00:00 -99.0 -99.0   -99   0.0   0.0   0.0
2019-10-14 14:00   7.2   8.6   264  50.2  31.2  47.8
2019-10-14 13:00   7.6   9.1   269  48.6  30.1  48.5
2019-10-14 12:00   9.7  11.9   291  47.1  28.7  48.3
2019-10-14 11:00   6.6  10.5   250  45.3  29.6  53.8
2019-10-14 10:00   9.5  10.3   267  43.7  32.7  64.9
2019-10-14 09:00  10.5  12.4   264  41.9  34.5  74.7
2019-10-14 08:00  12.6  14.4   270  41.0  34.1  76.3
2019-10-14 07:00  12.8  14.0   267  41.4  34.3  75.8
2019-10-14 06:00  11.1  12.4   274  41.9  34.7  75.4
2019-10-14 05:00  13.6  15.0   282  42.6  34.0  71.3
2019-10-14 04:00  11.7  12.6   283  43.2  33.4  68.0
2019-10-14 03:00  12.2  14.6   271  44.1  33.4  65.8
2019-10-14 02:00  14.0  15.2   290  44.6  31.2  58.9
2019-10-14 01:00  12.1  14.8   269  45.1  32.3  60.5
2019-10-14 00:00  15.0  16.5   288  45.7  32.8  60.3
2019-10-13 23:00  14.2  16.3   294  46.0  32.0  57.6
2019-10-13 22:00  13.0  15.6   287  46.2  32.8  59.1
2019-10-13 21:00  15.6  20.0   299  47.3  33.1  57.4
2019-10-13 20:00  19.6  22.7   291  48.2  32.2  53.5
2019-10-13 19:00  13.4  17.5   295  49.8  35.9  58.4
2019-10-13 18:00  16.7  19.4   291  50.7  35.4  55.4
2019-10-13 17:00  15.0  19.1   273  52.2  34.2  50.0
2019-10-13 16:00  19.8  22.0   270  53.2  32.6  45.1
2019-10-13 15:00  21.0  25.1   264  53.4  33.2  45.8
2019-10-13 14:00  16.9  19.8   234  52.2  32.1  45.9
2019-10-13 13:00  21.6  29.5   232  50.2  33.1  51.5
2019-10-13 12:00  20.8  24.9   261  47.8  31.8  53.5
2019-10-13 11:00  25.7  28.8   255  45.3  31.5  58.0
2019-10-13 10:00  22.0  26.2   249  44.4  31.5  60.2
2019-10-13 09:00  15.2  17.7   243  44.1  32.7  64.0
2019-10-13 08:00  17.5  23.1   228  45.3  32.1  59.5
2019-10-13 07:00  13.8  17.9   234  45.7  31.8  57.9
2019-10-13 06:00  12.6  14.6   210  45.1  34.4  65.6
2019-10-13 05:00   8.6  10.1   258  43.9  33.5  66.4
2019-10-13 04:00  10.3  11.5   282  44.1  35.5  71.5
2019-10-13 03:00   9.9  11.3   297  44.6  38.0  77.5
2019-10-13 02:00   4.3   6.8   303  46.4  39.6  76.9
2019-10-13 01:00  11.1  16.9   304  49.8  38.7  65.3
2019-10-13 00:00  23.9  29.5   218  51.8  34.1  50.5
2019-10-12 23:00  21.0  23.7   217  52.3  34.4  50.0
2019-10-12 22:00  29.5  34.2   204  52.5  33.6  48.1
2019-10-12 21:00  27.2  29.2   196  52.5  34.0  48.9
2019-10-12 20:00  28.2  31.3   196  53.8  32.5  44.0
2019-10-12 19:00  25.5  29.2   195  54.9  30.3  38.6
2019-10-12 18:00  30.7  34.6   195  55.4  29.2  36.3
2019-10-12 17:00  31.5  35.2   202  54.9  29.8  37.9
2019-10-12 16:00  29.7  33.4   211  53.4  28.6  38.1
2019-10-12 15:00  25.5  29.7   200  51.1  29.4  42.9
2019-10-12 14:00  26.4  29.5   208  48.9  26.0  40.4
2019-10-12 13:00  25.7  29.2   215  46.8  25.4  42.8
2019-10-12 12:00  25.3  35.2   220  44.4  24.2  44.6
2019-10-12 11:00  20.0  25.7   235  43.0  25.7  50.2
2019-10-12 10:00  21.0  26.6   228  41.9  25.1  51.0
2019-10-12 09:00  18.9  22.2   215  39.9  26.7  58.8
2019-10-12 08:00  17.1  20.2   229  39.6  28.4  63.9
2019-10-12 07:00  18.7  21.8   226  39.4  28.5  64.6
2019-10-12 06:00  15.4  17.3   240  39.9  25.9  56.8
2019-10-12 05:00  16.9  23.7   233  40.6  26.5  56.8
2019-10-12 04:00  15.7  19.1   245  40.5  27.0  58.4
2019-10-12 03:00  15.9  21.4   232  40.5  26.1  56.2
2019-10-12 02:00  15.4  18.9   252  40.6  25.4  54.2
2019-10-12 01:00  16.7  22.9   260  41.0  25.6  53.9
2019-10-12 00:00  19.6  23.1   264  41.4  25.5  52.9
2019-10-11 23:00  24.5  30.3   275  41.9  27.5  56.3
2019-10-11 22:00  23.5  27.6   261  42.6  28.4  56.7
2019-10-11 21:00  19.1  23.3   264  43.3  32.5  65.2
2019-10-11 20:00  22.7  29.4   277  43.5  32.9  65.9
2019-10-11 19:00  26.2  29.2   264  43.7  34.1  68.7
2019-10-11 18:00  18.5  22.0   266  44.8  40.7  85.3
2019-10-11 17:00  17.7  21.8   272  43.9  40.0  86.2
2019-10-11 16:00  19.1  21.2   265  44.6  42.0  90.6
2019-10-11 15:00  19.1  21.2   273  46.2  43.0  88.5
2019-10-11 14:00  22.9  25.7   267  48.6  47.1  94.8
2019-10-11 13:00  19.2  22.2   266  51.1  48.7  91.6
2019-10-11 12:00  14.0  17.7   245  54.5  54.1  98.6
2019-10-11 11:00  21.2  23.3   272  56.7  56.5  99.4
2019-10-11 10:00  13.4  14.0   186  64.4  64.5 100.3
2019-10-11 09:00  17.1  17.9   176  65.7  64.5  95.9
2019-10-11 08:00  13.2  14.0   168  64.6  63.8  97.4
2019-10-11 07:00  15.0  15.9   174  66.0  64.9  96.2
2019-10-11 06:00  12.2  13.0   186  66.4  64.9  94.8
2019-10-11 05:00  14.0  14.4   179  65.1  64.6  98.2
2019-10-11 04:00  16.7  19.1   170  64.6  64.3  99.1
2019-10-11 03:00  13.4  14.8   155  64.0  63.3  97.3
2019-10-11 02:00  12.6  13.8   170  64.0  62.9  96.1
2019-10-11 01:00  15.7  17.1   157  65.7  63.2  91.5
2019-10-11 00:00  20.2  23.9   163  66.0  63.1  90.2
2019-10-10 23:00  11.7  12.6   163  64.2  60.8  88.6
2019-10-10 22:00   6.6   8.0   205  64.2  61.1  89.6
2019-10-10 21:00   8.2   8.9   159  66.7  61.5  82.9
2019-10-10 20:00  11.5  13.4   185  62.4  61.3  96.2
2019-10-10 19:00  17.9  18.3   105  64.9  61.5  88.3
2019-10-10 18:00  12.8  13.6   104  64.2  61.5  90.6
2019-10-10 17:00  12.2  12.6   128  65.1  61.5  87.9
2019-10-10 16:00   8.9  10.1   146  63.0  61.3  94.3
2019-10-10 15:00  14.6  15.7   116  63.7  60.4  88.8
2019-10-10 14:00   9.3   9.9   108  61.9  59.4  91.4
2019-10-10 13:00   9.5   9.7   128  60.8  59.1  93.9
2019-10-10 12:00  12.2  13.2   126  59.4  58.4  96.7
2019-10-10 11:00  13.6  15.2   136  58.1  57.9  99.3
2019-10-10 10:00  11.1  12.2   144  57.7  56.9  97.1
2019-10-10 09:00  14.0  16.9   159  57.2  56.5  97.4
2019-10-10 08:00  14.2  17.3   144  58.5  57.0  94.7
2019-10-10 07:00  12.8  13.8   130  57.4  55.7  93.9
2019-10-10 06:00   9.9  10.9   165  57.6  55.7  93.4
2019-10-10 05:00   9.1  11.7   155  57.7  54.4  88.4
2019-10-10 04:00  10.3  12.4   151  58.8  53.7  82.8
2019-10-10 03:00   8.4   9.3   143  59.0  53.9  83.0
2019-10-10 02:00   7.6   9.7   152  59.4  54.1  82.5
2019-10-10 01:00  17.7  19.2   132  59.9  53.8  80.0
2019-10-10 00:00  13.8  15.0   126  60.1  54.7  82.3
2019-10-09 23:00   4.3   5.1   183  59.7  56.9  90.4
2019-10-09 22:00  14.8  15.6   105  61.2  55.7  82.0
2019-10-09 21:00  14.4  15.4   105  62.2  54.5  75.5
2019-10-09 20:00  14.0  14.8    98  61.9  56.1  81.0
2019-10-09 19:00  15.4  15.9    76  60.6  56.9  87.4